Time;durP1;ratioP1;P1;durP2;ratioP2;P2;SDS_P1;SDS_P2;PMS_P1;PMS_P2;Temp;Humidity;BMP_temperature;BMP_pressure;BME280_temperature;BME280_humidity;BME280_pressure;Samples;Min_cycle;Max_cycle;Signal;HPM_P1;HPM_P2
2022/09/05 00:02:21;;;;;;;5.83;3.70;;;;;;;;;;4998467;28;20194;-66
2022/09/05 00:05:06;;;;;;;4.20;3.90;;;;;;;;;;4994311;28;20199;-67
2022/09/05 00:07:50;;;;;;;5.23;4.83;;;;;;;;;;4982425;28;20181;-65
2022/09/05 00:10:26;;;;;;;4.20;3.97;;;;;;;;;;4991967;28;20187;-66
2022/09/05 00:12:55;;;;;;;4.30;4.00;;;;;;;;;;4989001;28;20207;-66
2022/09/05 00:15:30;;;;;;;4.87;4.57;;;;;;;;;;4996731;28;20187;-66
2022/09/05 00:18:11;;;;;;;4.17;3.87;;;;;;;;;;4974432;28;22426;-65
2022/09/05 00:20:55;;;;;;;4.57;4.27;;;;;;;;;;4991776;28;20654;-66
2022/09/05 00:23:31;;;;;;;4.20;3.90;;;;;;;;;;4993558;28;20198;-66
2022/09/05 00:26:11;;;;;;;4.00;3.80;;;;;;;;;;4980086;28;20589;-67
2022/09/05 00:28:56;;;;;;;4.50;4.20;;;;;;;;;;4967612;28;20536;-67
2022/09/05 00:31:22;;;;;;;4.80;4.50;;;;;;;;;;4998303;28;20441;-66
2022/09/05 00:33:59;;;;;;;4.13;3.93;;;;;;;;;;5003441;28;20180;-63
2022/09/05 00:36:54;;;;;;;4.90;4.60;;;;;;;;;;4988693;28;20180;-67
2022/09/05 00:39:29;;;;;;;5.03;4.70;;;;;;;;;;4986058;28;20180;-67
2022/09/05 00:41:58;;;;;;;4.27;4.07;;;;;;;;;;4963749;28;20645;-67
2022/09/05 00:44:26;;;;;;;4.30;4.00;;;;;;;;;;4993891;28;20180;-68
2022/09/05 00:47:01;;;;;;;4.97;4.57;;;;;;;;;;5000567;28;20234;-67
2022/09/05 00:49:32;;;;;;;4.47;4.17;;;;;;;;;;4975576;28;20206;-68
2022/09/05 00:52:06;;;;;;;4.77;4.47;;;;;;;;;;5006300;28;20206;-64
2022/09/05 00:54:41;;;;;;;4.10;3.80;;;;;;;;;;4983243;28;20171;-65
2022/09/05 00:57:21;;;;;;;4.10;3.90;;;;;;;;;;5004108;28;20577;-68
2022/09/05 00:59:59;;;;;;;4.97;4.57;;;;;;;;;;4998180;28;20178;-70
2022/09/05 01:02:36;;;;;;;4.30;4.03;;;;;;;;;;5001879;28;20650;-70
2022/09/05 01:05:21;;;;;;;4.77;4.47;;;;;;;;;;4991870;28;20198;-69
2022/09/05 01:08:06;;;;;;;4.53;4.23;;;;;;;;;;4978823;28;20187;-65
2022/09/05 01:10:32;;;;;;;4.33;4.03;;;;;;;;;;4994212;28;20199;-66
2022/09/05 01:13:10;;;;;;;4.90;4.60;;;;;;;;;;4996293;28;20207;-66
2022/09/05 01:15:53;;;;;;;4.87;4.47;;;;;;;;;;4998487;28;20695;-69
2022/09/05 01:18:38;;;;;;;4.30;4.00;;;;;;;;;;5004185;28;20646;-68
2022/09/05 01:21:28;;;;;;;4.50;4.20;;;;;;;;;;5004741;28;20178;-68
2022/09/05 01:24:03;;;;;;;4.27;3.97;;;;;;;;;;4982018;28;20185;-68
2022/09/05 01:26:29;;;;;;;4.10;3.80;;;;;;;;;;4997605;28;20186;-70
2022/09/05 01:29:07;;;;;;;4.30;4.00;;;;;;;;;;4999503;28;20175;-71
2022/09/05 01:31:39;;;;;;;4.30;4.00;;;;;;;;;;4994409;28;20203;-71
2022/09/05 01:34:19;;;;;;;4.30;4.10;;;;;;;;;;4970014;28;20210;-68
2022/09/05 01:36:51;;;;;;;4.70;4.40;;;;;;;;;;4982813;28;20536;-64
2022/09/05 01:39:17;;;;;;;4.60;4.20;;;;;;;;;;4991488;28;20217;-71
2022/09/05 01:41:49;;;;;;;4.70;4.40;;;;;;;;;;5009282;28;20159;-69
2022/09/05 01:44:36;;;;;;;4.40;4.10;;;;;;;;;;4995413;28;20187;-68
2022/09/05 01:47:22;;;;;;;4.83;4.53;;;;;;;;;;4981996;28;20233;-69
2022/09/05 01:49:48;;;;;;;4.30;4.10;;;;;;;;;;4987088;28;20186;-69
2022/09/05 01:52:18;;;;;;;4.20;4.00;;;;;;;;;;4983456;28;20211;-66
2022/09/05 01:54:56;;;;;;;4.60;4.30;;;;;;;;;;4957108;28;20190;-70
2022/09/05 01:57:22;;;;;;;4.73;4.43;;;;;;;;;;4980169;28;20206;-68
2022/09/05 01:59:55;;;;;;;4.93;4.50;;;;;;;;;;4982679;28;20193;-71
2022/09/05 02:02:21;;;;;;;4.50;4.20;;;;;;;;;;4976942;28;20198;-71
2022/09/05 02:04:53;;;;;;;4.10;3.90;;;;;;;;;;4987357;28;20183;-70
2022/09/05 02:07:22;;;;;;;5.40;4.90;;;;;;;;;;4983270;28;20660;-67
2022/09/05 02:10:07;;;;;;;4.60;4.40;;;;;;;;;;4990027;28;20623;-67
2022/09/05 02:12:55;;;;;;;4.70;4.40;;;;;;;;;;4996445;28;20555;-66
2022/09/05 02:15:24;;;;;;;4.43;4.13;;;;;;;;;;4974073;28;20186;-69
2022/09/05 02:18:00;;;;;;;4.40;4.10;;;;;;;;;;4996635;28;20214;-66
2022/09/05 02:20:32;;;;;;;4.73;4.43;;;;;;;;;;4991480;28;20176;-70
2022/09/05 02:23:10;;;;;;;4.27;3.97;;;;;;;;;;5001394;28;20208;-69
2022/09/05 02:25:42;;;;;;;4.37;4.07;;;;;;;;;;4999731;28;20188;-63
2022/09/05 02:28:13;;;;;;;4.10;3.90;;;;;;;;;;5000331;28;20180;-65
2022/09/05 02:30:44;;;;;;;4.07;3.77;;;;;;;;;;4978120;28;20189;-68
2022/09/05 02:33:16;;;;;;;4.17;3.87;;;;;;;;;;5004224;28;20208;-67
2022/09/05 02:35:45;;;;;;;4.53;4.23;;;;;;;;;;4999936;28;20655;-68
2022/09/05 02:38:17;;;;;;;5.00;4.70;;;;;;;;;;4984908;28;20419;-67
2022/09/05 02:40:53;;;;;;;4.40;4.10;;;;;;;;;;4996201;28;20185;-70
2022/09/05 02:43:30;;;;;;;5.03;4.63;;;;;;;;;;5002326;28;20650;-68
2022/09/05 02:45:56;;;;;;;5.73;5.00;;;;;;;;;;4985935;28;20302;-68
2022/09/05 02:48:32;;;;;;;4.43;4.13;;;;;;;;;;4998927;28;20209;-69
2022/09/05 02:51:12;;;;;;;4.30;4.10;;;;;;;;;;4997906;28;20710;-67
2022/09/05 02:53:40;;;;;;;4.10;3.80;;;;;;;;;;5001237;28;20196;-71
2022/09/05 02:56:25;;;;;;;4.00;3.70;;;;;;;;;;4990996;28;20181;-69
2022/09/05 02:59:09;;;;;;;4.20;3.90;;;;;;;;;;4998969;28;20195;-67
2022/09/05 03:01:49;;;;;;;4.50;4.10;;;;;;;;;;4988253;28;20418;-65
2022/09/05 03:04:23;;;;;;;4.37;4.17;;;;;;;;;;4987419;28;20191;-64
2022/09/05 03:06:55;;;;;;;4.10;3.90;;;;;;;;;;4992015;28;20202;-64
2022/09/05 03:09:40;;;;;;;3.90;3.70;;;;;;;;;;4996915;28;20279;-63
2022/09/05 03:12:06;;;;;;;4.37;4.07;;;;;;;;;;4992018;28;20248;-64
2022/09/05 03:14:35;;;;;;;4.13;3.83;;;;;;;;;;4972517;28;20190;-64
2022/09/05 03:17:16;;;;;;;25.63;24.43;;;;;;;;;;5001217;28;20237;-62
2022/09/05 03:20:01;;;;;;;3.97;3.77;;;;;;;;;;4977149;28;20167;-64
2022/09/05 03:22:43;;;;;;;4.30;4.00;;;;;;;;;;5001045;28;20187;-63
2022/09/05 03:25:32;;;;;;;4.63;4.33;;;;;;;;;;4995720;28;20170;-65
2022/09/05 03:28:02;;;;;;;4.63;4.23;;;;;;;;;;4991327;28;20182;-66
2022/09/05 03:30:40;;;;;;;3.80;3.60;;;;;;;;;;5000959;28;20191;-64
2022/09/05 03:33:26;;;;;;;7.53;7.13;;;;;;;;;;4991222;28;20682;-63
2022/09/05 03:36:11;;;;;;;4.33;4.03;;;;;;;;;;4995977;28;20179;-65
2022/09/05 03:38:57;;;;;;;3.97;3.73;;;;;;;;;;4997231;28;20180;-64
2022/09/05 03:41:42;;;;;;;4.37;4.07;;;;;;;;;;4998206;28;20194;-64
2022/09/05 03:44:20;;;;;;;4.57;4.17;;;;;;;;;;4989898;28;20726;-66
2022/09/05 03:46:46;;;;;;;3.67;3.47;;;;;;;;;;5001571;28;20250;-64
2022/09/05 03:49:15;;;;;;;4.93;4.00;;;;;;;;;;4998969;28;20180;-64
2022/09/05 03:51:44;;;;;;;4.27;3.97;;;;;;;;;;4983443;28;20198;-63
2022/09/05 03:54:28;;;;;;;4.10;3.80;;;;;;;;;;4983366;28;20635;-64
2022/09/05 03:57:02;;;;;;;4.33;4.03;;;;;;;;;;4976974;28;20176;-65
2022/09/05 03:59:40;;;;;;;4.10;3.90;;;;;;;;;;4982637;28;20531;-64
2022/09/05 04:02:08;;;;;;;7.00;6.60;;;;;;;;;;4974097;28;20175;-63
2022/09/05 04:04:37;;;;;;;3.60;3.40;;;;;;;;;;4990946;28;20183;-66
2022/09/05 04:07:06;;;;;;;4.90;4.60;;;;;;;;;;4991016;28;20190;-65
2022/09/05 04:09:45;;;;;;;5.10;4.80;;;;;;;;;;4972173;28;20190;-66
2022/09/05 04:12:17;;;;;;;4.13;3.83;;;;;;;;;;4999159;28;20200;-63
2022/09/05 04:14:43;;;;;;;4.63;4.30;;;;;;;;;;4980636;28;20170;-65
2022/09/05 04:17:17;;;;;;;3.40;3.20;;;;;;;;;;4971567;28;20166;-66
2022/09/05 04:19:46;;;;;;;3.83;3.50;;;;;;;;;;4977850;28;20211;-65
2022/09/05 04:22:22;;;;;;;4.10;3.80;;;;;;;;;;4974453;28;20553;-65
2022/09/05 04:25:03;;;;;;;3.83;3.50;;;;;;;;;;4991278;28;20651;-65
2022/09/05 04:27:37;;;;;;;3.57;3.37;;;;;;;;;;4990168;28;20541;-65
2022/09/05 04:30:23;;;;;;;3.33;3.13;;;;;;;;;;4988088;28;20183;-66
2022/09/05 04:33:02;;;;;;;4.30;3.97;;;;;;;;;;4966490;28;20275;-66
2022/09/05 04:35:28;;;;;;;3.73;3.43;;;;;;;;;;4987534;28;20189;-65
2022/09/05 04:38:10;;;;;;;3.60;3.40;;;;;;;;;;4989782;28;20272;-68
2022/09/05 04:40:47;;;;;;;3.73;3.43;;;;;;;;;;4984573;28;20211;-66
2022/09/05 04:43:19;;;;;;;4.40;3.30;;;;;;;;;;4995431;28;20173;-67
2022/09/05 04:45:49;;;;;;;4.00;3.60;;;;;;;;;;4983595;28;20232;-67
2022/09/05 04:48:18;;;;;;;4.50;4.20;;;;;;;;;;4993769;28;20201;-69
2022/09/05 04:50:57;;;;;;;4.13;3.83;;;;;;;;;;4985710;28;20183;-65
2022/09/05 04:53:42;;;;;;;3.90;3.60;;;;;;;;;;4977657;28;20212;-68
2022/09/05 04:56:20;;;;;;;3.80;3.50;;;;;;;;;;4958379;28;20193;-67
2022/09/05 04:58:52;;;;;;;4.17;3.87;;;;;;;;;;4975519;28;20187;-65
2022/09/05 05:01:27;;;;;;;3.77;3.47;;;;;;;;;;4989358;28;20651;-70
2022/09/05 05:03:54;;;;;;;4.33;4.00;;;;;;;;;;4984581;28;20267;-66
2022/09/05 05:06:23;;;;;;;3.60;3.33;;;;;;;;;;4984677;28;20219;-67
2022/09/05 05:08:59;;;;;;;3.30;3.10;;;;;;;;;;4989494;28;20314;-70
2022/09/05 05:11:44;;;;;;;3.97;3.70;;;;;;;;;;4971897;28;20215;-68
2022/09/05 05:14:13;;;;;;;3.90;3.60;;;;;;;;;;4970236;28;20181;-68
2022/09/05 05:16:45;;;;;;;4.17;3.83;;;;;;;;;;4982379;28;20184;-69
2022/09/05 05:19:26;;;;;;;5.23;4.80;;;;;;;;;;4983683;28;20196;-62
2022/09/05 05:21:54;;;;;;;3.80;3.60;;;;;;;;;;4980721;28;20210;-65
2022/09/05 05:24:27;;;;;;;4.83;4.33;;;;;;;;;;4988173;28;20183;-65
2022/09/05 05:27:02;;;;;;;4.70;4.17;;;;;;;;;;4975413;28;20191;-66
2022/09/05 05:29:29;;;;;;;5.17;4.80;;;;;;;;;;4975417;28;20179;-65
2022/09/05 05:31:58;;;;;;;5.10;4.63;;;;;;;;;;4983770;28;20231;-65
2022/09/05 05:34:34;;;;;;;7.53;4.37;;;;;;;;;;4985846;28;20429;-62
2022/09/05 05:37:01;;;;;;;4.23;3.93;;;;;;;;;;4988199;28;20222;-66
2022/09/05 05:39:33;;;;;;;4.33;4.00;;;;;;;;;;4980996;28;20186;-67
2022/09/05 05:42:01;;;;;;;4.27;3.97;;;;;;;;;;5007702;28;20170;-67
2022/09/05 05:44:30;;;;;;;4.80;4.43;;;;;;;;;;4991516;28;20179;-69
2022/09/05 05:47:06;;;;;;;4.03;3.73;;;;;;;;;;4971253;28;20225;-68
2022/09/05 05:49:32;;;;;;;4.77;4.37;;;;;;;;;;4967147;28;20555;-68
2022/09/05 05:52:05;;;;;;;4.50;4.10;;;;;;;;;;4978202;28;20203;-65
2022/09/05 05:54:40;;;;;;;4.50;4.20;;;;;;;;;;4954494;28;20184;-66
2022/09/05 05:57:06;;;;;;;4.03;3.73;;;;;;;;;;4979711;28;20199;-67
2022/09/05 05:59:51;;;;;;;4.83;4.00;;;;;;;;;;4976100;28;20812;-65
2022/09/05 06:02:21;;;;;;;4.60;3.80;;;;;;;;;;4964535;28;20195;-66
2022/09/05 06:05:05;;;;;;;4.00;3.70;;;;;;;;;;4983586;28;20798;-65
2022/09/05 06:07:50;;;;;;;4.53;3.80;;;;;;;;;;4976759;28;20185;-65
2022/09/05 06:10:25;;;;;;;4.10;3.80;;;;;;;;;;4970600;28;20182;-64
2022/09/05 06:13:10;;;;;;;4.00;3.70;;;;;;;;;;4953489;28;20197;-64
2022/09/05 06:15:36;;;;;;;3.77;3.53;;;;;;;;;;4975714;28;20182;-61
2022/09/05 06:18:38;;;;;;;4.03;3.73;;;;;;;;;;4962843;28;20195;-61
2022/09/05 06:21:13;;;;;;;4.90;4.60;;;;;;;;;;4933784;29;20183;-62
2022/09/05 06:23:57;;;;;;;4.07;3.77;;;;;;;;;;4970609;28;20289;-63
2022/09/05 06:26:32;;;;;;;4.10;3.70;;;;;;;;;;4985392;28;20190;-63
2022/09/05 06:29:15;;;;;;;4.23;3.93;;;;;;;;;;4956844;28;20192;-63
2022/09/05 06:31:47;;;;;;;4.13;3.83;;;;;;;;;;4972339;28;20202;-64
2022/09/05 06:34:24;;;;;;;4.45;3.67;;;;;;;;;;4986954;28;20428;-61
2022/09/05 06:36:56;;;;;;;5.53;5.13;;;;;;;;;;4968823;28;20191;-60
2022/09/05 06:39:41;;;;;;;4.33;3.83;;;;;;;;;;4978926;28;20690;-60
2022/09/05 06:42:26;;;;;;;3.90;3.70;;;;;;;;;;4983200;28;20171;-60
2022/09/05 06:45:07;;;;;;;4.23;3.87;;;;;;;;;;4981050;28;20194;-62
2022/09/05 06:47:42;;;;;;;4.50;4.20;;;;;;;;;;4983561;28;20219;-59
2022/09/05 06:50:10;;;;;;;5.07;4.70;;;;;;;;;;4983552;28;20179;-60
2022/09/05 06:52:55;;;;;;;3.57;3.27;;;;;;;;;;4986076;28;20209;-62
2022/09/05 06:55:27;;;;;;;4.77;4.47;;;;;;;;;;4989011;28;20190;-61
2022/09/05 06:58:16;;;;;;;4.07;3.77;;;;;;;;;;4987806;28;20186;-62
2022/09/05 07:00:55;;;;;;;4.23;3.83;;;;;;;;;;4978872;28;20185;-62
2022/09/05 07:03:39;;;;;;;4.27;3.77;;;;;;;;;;4981111;28;20187;-61
2022/09/05 07:06:08;;;;;;;4.43;4.03;;;;;;;;;;4982884;28;20802;-62
2022/09/05 07:08:34;;;;;;;4.47;3.80;;;;;;;;;;4954477;28;20632;-63
2022/09/05 07:11:10;;;;;;;3.87;3.53;;;;;;;;;;4967138;28;20545;-62
2022/09/05 07:13:46;;;;;;;3.93;3.63;;;;;;;;;;4966225;28;20177;-63
2022/09/05 07:16:31;;;;;;;3.93;3.63;;;;;;;;;;4989607;28;20260;-62
2022/09/05 07:19:23;;;;;;;4.17;3.87;;;;;;;;;;4969915;28;20576;-63
2022/09/05 07:22:03;;;;;;;4.13;3.83;;;;;;;;;;4968073;28;20211;-62
2022/09/05 07:24:30;;;;;;;3.70;3.47;;;;;;;;;;4985540;28;20237;-63
2022/09/05 07:26:59;;;;;;;4.00;3.80;;;;;;;;;;4983143;28;20642;-63
2022/09/05 07:29:33;;;;;;;3.60;3.30;;;;;;;;;;4978398;28;21036;-63
2022/09/05 07:32:01;;;;;;;4.77;3.47;;;;;;;;;;4992952;28;20198;-63
2022/09/05 07:34:31;;;;;;;4.83;4.43;;;;;;;;;;4983709;28;20239;-64
2022/09/05 07:37:04;;;;;;;3.37;3.17;;;;;;;;;;4986417;28;20234;-63
2022/09/05 07:39:33;;;;;;;3.93;3.63;;;;;;;;;;4986480;28;20231;-62
2022/09/05 07:42:01;;;;;;;3.53;3.33;;;;;;;;;;4987943;28;20592;-62
2022/09/05 07:44:35;;;;;;;3.60;3.30;;;;;;;;;;4968648;28;20724;-63
2022/09/05 07:47:06;;;;;;;4.13;3.83;;;;;;;;;;4985855;28;20242;-63
2022/09/05 07:49:33;;;;;;;3.30;3.10;;;;;;;;;;4987072;28;20557;-63
2022/09/05 07:52:01;;;;;;;3.80;3.50;;;;;;;;;;4988088;28;20736;-63
2022/09/05 07:54:30;;;;;;;3.60;3.40;;;;;;;;;;4970869;28;20182;-64
2022/09/05 07:57:03;;;;;;;3.70;3.50;;;;;;;;;;4983299;28;20179;-63
2022/09/05 07:59:32;;;;;;;4.70;4.00;;;;;;;;;;4973693;28;20590;-63
2022/09/05 08:01:59;;;;;;;3.83;3.63;;;;;;;;;;4987505;28;20214;-63
2022/09/05 08:04:27;;;;;;;3.50;3.30;;;;;;;;;;4970823;28;20180;-63
2022/09/05 08:06:54;;;;;;;3.73;3.43;;;;;;;;;;4971796;28;20203;-63
2022/09/05 08:09:30;;;;;;;3.90;3.63;;;;;;;;;;4989413;28;20187;-63
2022/09/05 08:11:59;;;;;;;4.13;3.40;;;;;;;;;;4987918;28;20210;-63
2022/09/05 08:14:26;;;;;;;4.70;4.37;;;;;;;;;;4988431;28;20176;-63
2022/09/05 08:16:52;;;;;;;5.40;3.43;;;;;;;;;;4986282;28;20183;-63
2022/09/05 08:19:39;;;;;;;4.00;3.70;;;;;;;;;;4972167;28;20270;-63
2022/09/05 08:22:06;;;;;;;4.00;3.67;;;;;;;;;;4986263;28;20193;-63
2022/09/05 08:24:36;;;;;;;3.47;3.23;;;;;;;;;;4986930;28;20199;-64
2022/09/05 08:27:17;;;;;;;3.33;3.13;;;;;;;;;;4972601;28;20705;-64
2022/09/05 08:30:00;;;;;;;3.83;3.50;;;;;;;;;;4981170;28;20902;-64
2022/09/05 08:32:36;;;;;;;5.67;3.90;;;;;;;;;;4967999;28;20211;-62
2022/09/05 08:35:05;;;;;;;3.87;3.57;;;;;;;;;;4971991;28;20189;-64
2022/09/05 08:37:32;;;;;;;4.20;3.80;;;;;;;;;;4992754;28;20179;-63
2022/09/05 08:40:09;;;;;;;4.27;3.87;;;;;;;;;;4996298;28;20175;-64
2022/09/05 08:42:42;;;;;;;3.70;3.50;;;;;;;;;;4991335;28;20168;-64
2022/09/05 08:45:19;;;;;;;4.00;3.70;;;;;;;;;;4970961;28;20211;-65
2022/09/05 08:47:58;;;;;;;4.47;3.03;;;;;;;;;;4959995;28;20260;-63
2022/09/05 08:50:24;;;;;;;4.70;4.40;;;;;;;;;;4989254;28;20187;-66
2022/09/05 08:52:56;;;;;;;3.90;3.70;;;;;;;;;;4990377;28;20199;-64
2022/09/05 08:55:37;;;;;;;3.87;3.10;;;;;;;;;;4993268;28;20197;-65
2022/09/05 08:58:22;;;;;;;3.93;3.63;;;;;;;;;;4988918;28;20173;-66
2022/09/05 09:00:54;;;;;;;3.47;3.27;;;;;;;;;;4970073;28;20583;-64
2022/09/05 09:03:35;;;;;;;3.27;2.90;;;;;;;;;;4960067;28;20281;-64
2022/09/05 09:06:13;;;;;;;3.90;3.37;;;;;;;;;;4990060;28;20258;-64
2022/09/05 09:09:02;;;;;;;3.83;3.33;;;;;;;;;;4984170;28;20180;-64
2022/09/05 09:11:34;;;;;;;4.17;3.87;;;;;;;;;;4964605;28;20187;-63
2022/09/05 09:14:16;;;;;;;3.70;3.40;;;;;;;;;;4981984;28;20180;-64
2022/09/05 09:16:52;;;;;;;3.53;3.33;;;;;;;;;;4977790;28;20674;-61
2022/09/05 09:19:23;;;;;;;4.03;3.80;;;;;;;;;;4961011;28;20445;-65
2022/09/05 09:22:07;;;;;;;3.97;3.67;;;;;;;;;;4964226;28;20216;-63
2022/09/05 09:24:40;;;;;;;4.43;3.50;;;;;;;;;;4991143;28;20193;-65
2022/09/05 09:27:10;;;;;;;3.27;3.07;;;;;;;;;;4990010;28;20249;-65
2022/09/05 09:29:39;;;;;;;3.30;3.00;;;;;;;;;;4994333;28;20223;-65
2022/09/05 09:32:08;;;;;;;4.87;3.53;;;;;;;;;;4966940;28;20204;-65
2022/09/05 09:34:43;;;;;;;4.10;3.80;;;;;;;;;;4983614;28;20191;-65
2022/09/05 09:37:27;;;;;;;3.88;3.58;;;;;;;;;;4973717;28;20511;-62
2022/09/05 09:40:14;;;;;;;3.40;3.20;;;;;;;;;;4980340;28;20230;-64
2022/09/05 09:42:40;;;;;;;3.90;3.60;;;;;;;;;;4967016;28;20194;-64
2022/09/05 09:45:21;;;;;;;3.50;3.30;;;;;;;;;;4980082;28;20184;-63
2022/09/05 09:47:56;;;;;;;3.93;3.63;;;;;;;;;;4995610;28;20636;-64
2022/09/05 09:50:31;;;;;;;3.50;3.30;;;;;;;;;;4974566;28;20194;-64
2022/09/05 09:53:13;;;;;;;4.33;3.93;;;;;;;;;;4985058;28;20209;-63
2022/09/05 09:55:48;;;;;;;3.53;3.33;;;;;;;;;;4973380;28;20180;-64
2022/09/05 09:58:20;;;;;;;3.60;3.30;;;;;;;;;;4979794;28;20536;-61
2022/09/05 10:00:54;;;;;;;3.97;3.70;;;;;;;;;;4987466;28;20190;-62
2022/09/05 10:03:20;;;;;;;3.80;3.60;;;;;;;;;;4988099;28;20169;-62
2022/09/05 10:05:59;;;;;;;3.43;3.23;;;;;;;;;;4969993;28;20720;-65
2022/09/05 10:08:43;;;;;;;4.77;3.80;;;;;;;;;;4987586;28;20183;-64
2022/09/05 10:11:28;;;;;;;3.50;3.30;;;;;;;;;;4989764;28;20187;-64
2022/09/05 10:14:04;;;;;;;3.50;3.30;;;;;;;;;;4959570;28;20191;-64
2022/09/05 10:16:56;;;;;;;3.87;3.57;;;;;;;;;;4986698;28;20261;-64
2022/09/05 10:19:42;;;;;;;3.70;3.50;;;;;;;;;;4957291;28;20329;-63
2022/09/05 10:22:14;;;;;;;4.27;3.80;;;;;;;;;;4981884;28;20361;-63
2022/09/05 10:24:46;;;;;;;4.30;3.63;;;;;;;;;;4973803;28;20179;-65
2022/09/05 10:27:16;;;;;;;4.33;3.93;;;;;;;;;;5001283;28;20213;-66
2022/09/05 10:29:52;;;;;;;4.33;3.30;;;;;;;;;;4968531;28;20176;-63
2022/09/05 10:32:18;;;;;;;3.47;3.27;;;;;;;;;;4987575;28;20206;-64
2022/09/05 10:34:44;;;;;;;3.70;3.50;;;;;;;;;;4987555;28;20191;-65
2022/09/05 10:37:11;;;;;;;3.57;3.27;;;;;;;;;;4994555;28;20647;-66
2022/09/05 10:39:39;;;;;;;3.20;3.00;;;;;;;;;;4987507;28;20175;-64
2022/09/05 10:42:36;;;;;;;4.20;3.90;;;;;;;;;;4969952;28;20198;-66
2022/09/05 10:45:03;;;;;;;3.70;3.50;;;;;;;;;;4971498;28;20211;-66
2022/09/05 10:47:29;;;;;;;3.63;3.33;;;;;;;;;;4992872;28;20222;-66
2022/09/05 10:50:16;;;;;;;4.57;4.00;;;;;;;;;;4973083;28;20179;-65
2022/09/05 10:53:01;;;;;;;4.20;3.97;;;;;;;;;;4958931;28;20789;-65
2022/09/05 10:55:37;;;;;;;4.37;3.60;;;;;;;;;;4983398;28;20254;-64
2022/09/05 10:58:15;;;;;;;4.30;3.90;;;;;;;;;;4972319;28;20554;-67
2022/09/05 11:00:41;;;;;;;3.63;3.43;;;;;;;;;;4993183;28;20729;-66
2022/09/05 11:03:12;;;;;;;3.73;3.53;;;;;;;;;;5000519;28;20595;-65
2022/09/05 11:05:38;;;;;;;4.17;3.50;;;;;;;;;;4973928;28;20202;-66
2022/09/05 11:08:09;;;;;;;3.57;3.37;;;;;;;;;;4998294;28;20176;-65
2022/09/05 11:10:50;;;;;;;5.07;3.77;;;;;;;;;;4999423;28;20181;-65
2022/09/05 11:13:35;;;;;;;5.70;3.60;;;;;;;;;;4982611;28;20203;-66
2022/09/05 11:16:16;;;;;;;3.93;3.60;;;;;;;;;;4984190;28;20544;-66
2022/09/05 11:19:21;;;;;;;3.73;3.53;;;;;;;;;;4984080;28;20710;-65
2022/09/05 11:22:03;;;;;;;3.90;3.70;;;;;;;;;;4992156;28;20258;-62
2022/09/05 11:24:32;;;;;;;4.13;3.83;;;;;;;;;;4966196;28;20186;-65
2022/09/05 11:27:04;;;;;;;3.90;3.60;;;;;;;;;;4982306;28;20230;-65
2022/09/05 11:29:48;;;;;;;3.83;3.53;;;;;;;;;;4995933;28;20606;-66
2022/09/05 11:32:16;;;;;;;3.57;3.33;;;;;;;;;;4993960;28;20735;-66
2022/09/05 11:35:01;;;;;;;4.00;3.80;;;;;;;;;;5002072;28;20261;-65
2022/09/05 11:37:50;;;;;;;3.53;3.23;;;;;;;;;;4991865;28;20257;-66
2022/09/05 11:40:16;;;;;;;3.87;3.67;;;;;;;;;;4993791;28;20199;-66
2022/09/05 11:42:45;;;;;;;3.80;3.60;;;;;;;;;;4973597;28;20192;-64
2022/09/05 11:45:11;;;;;;;3.50;3.30;;;;;;;;;;4998606;28;20192;-66
2022/09/05 11:47:40;;;;;;;3.90;3.60;;;;;;;;;;4966734;28;20350;-66
2022/09/05 11:50:07;;;;;;;4.40;4.10;;;;;;;;;;4971773;28;20181;-66
2022/09/05 11:52:42;;;;;;;4.50;4.10;;;;;;;;;;4955002;28;20208;-65
2022/09/05 11:55:27;;;;;;;3.83;3.63;;;;;;;;;;4973481;28;20187;-64
2022/09/05 11:58:02;;;;;;;4.67;4.37;;;;;;;;;;4952929;28;20217;-64
2022/09/05 12:00:40;;;;;;;3.93;3.63;;;;;;;;;;4981991;28;20201;-63
2022/09/05 12:03:16;;;;;;;5.07;4.67;;;;;;;;;;4972067;28;20188;-63
2022/09/05 12:06:00;;;;;;;3.60;3.30;;;;;;;;;;4972603;28;20246;-63
2022/09/05 12:09:05;;;;;;;3.80;3.37;;;;;;;;;;4967039;28;20180;-63
2022/09/05 12:11:42;;;;;;;5.43;3.47;;;;;;;;;;4889587;29;20665;-63
2022/09/05 12:14:32;;;;;;;3.60;3.37;;;;;;;;;;4889266;29;20716;-64
2022/09/05 12:17:05;;;;;;;4.07;3.83;;;;;;;;;;4921378;28;20191;-64
2022/09/05 12:19:40;;;;;;;4.30;3.90;;;;;;;;;;4975488;28;20270;-66
2022/09/05 12:22:09;;;;;;;6.00;5.47;;;;;;;;;;4972790;28;20795;-66
2022/09/05 12:24:35;;;;;;;4.93;4.40;;;;;;;;;;4952090;28;20549;-65
2022/09/05 12:27:03;;;;;;;4.00;3.80;;;;;;;;;;4954281;28;20538;-65
2022/09/05 12:29:33;;;;;;;3.70;3.40;;;;;;;;;;4967107;28;20186;-62
2022/09/05 12:32:00;;;;;;;4.47;4.18;;;;;;;;;;4983985;28;20205;-61
2022/09/05 12:34:52;;;;;;;3.90;3.60;;;;;;;;;;4963003;28;20184;-61
2022/09/05 12:37:30;;;;;;;4.13;3.40;;;;;;;;;;4946658;28;20185;-60
2022/09/05 12:40:10;;;;;;;3.75;3.55;;;;;;;;;;4955253;28;20175;-63
2022/09/05 12:43:02;;;;;;;3.67;3.38;;;;;;;;;;4970976;28;20183;-64
2022/09/05 12:46:01;;;;;;;3.67;3.47;;;;;;;;;;4974760;28;20665;-63
2022/09/05 12:48:27;;;;;;;3.72;3.42;;;;;;;;;;4944334;28;20686;-64
2022/09/05 12:51:10;;;;;;;3.67;3.40;;;;;;;;;;5004528;28;20684;-68
2022/09/05 12:53:44;;;;;;;3.33;3.13;;;;;;;;;;4994292;28;20665;-62
2022/09/05 12:56:18;;;;;;;3.20;3.00;;;;;;;;;;4975822;28;20628;-63
2022/09/05 12:58:47;;;;;;;3.78;3.00;;;;;;;;;;4965470;28;20529;-64
2022/09/05 13:01:16;;;;;;;3.50;3.30;;;;;;;;;;4989124;28;20171;-65
2022/09/05 13:03:54;;;;;;;3.67;3.38;;;;;;;;;;4988859;28;20654;-65
2022/09/05 13:06:22;;;;;;;4.80;4.50;;;;;;;;;;4971916;28;20210;-66
2022/09/05 13:08:50;;;;;;;4.13;3.47;;;;;;;;;;4989736;28;20696;-65
2022/09/05 13:11:18;;;;;;;3.30;3.10;;;;;;;;;;4993173;28;20183;-64
2022/09/05 13:14:02;;;;;;;3.90;3.50;;;;;;;;;;4969335;28;20210;-65
2022/09/05 13:16:29;;;;;;;3.70;3.50;;;;;;;;;;4987479;28;20186;-65
2022/09/05 13:19:06;;;;;;;3.57;3.37;;;;;;;;;;4982026;28;20429;-62
2022/09/05 13:21:34;;;;;;;3.87;3.27;;;;;;;;;;4970821;28;20189;-65
2022/09/05 13:24:04;;;;;;;4.00;3.00;;;;;;;;;;4981011;28;20190;-66
2022/09/05 13:26:38;;;;;;;4.50;4.30;;;;;;;;;;4985715;28;20206;-64
2022/09/05 13:29:23;;;;;;;3.63;3.33;;;;;;;;;;4993407;28;21882;-66
2022/09/05 13:31:53;;;;;;;3.37;3.07;;;;;;;;;;4986619;28;20175;-64
2022/09/05 13:34:22;;;;;;;3.30;3.10;;;;;;;;;;4986581;28;20168;-65
2022/09/05 13:36:51;;;;;;;3.00;2.80;;;;;;;;;;4987536;28;20171;-65
2022/09/05 13:39:21;;;;;;;3.30;3.00;;;;;;;;;;4970001;28;20191;-66
2022/09/05 13:41:50;;;;;;;3.60;3.13;;;;;;;;;;4969704;28;20235;-65
2022/09/05 13:44:24;;;;;;;2.72;2.53;;;;;;;;;;4968560;28;20183;-63
2022/09/05 13:46:57;;;;;;;3.45;3.20;;;;;;;;;;4962308;28;21775;-63
2022/09/05 13:49:29;;;;;;;4.03;3.40;;;;;;;;;;4965637;28;20194;-66
2022/09/05 13:52:06;;;;;;;3.83;3.63;;;;;;;;;;4960514;28;20704;-65
2022/09/05 13:54:43;;;;;;;3.47;3.17;;;;;;;;;;4963839;28;20677;-65
2022/09/05 13:57:15;;;;;;;5.17;4.70;;;;;;;;;;4951656;28;20182;-62
2022/09/05 13:59:42;;;;;;;7.25;6.82;;;;;;;;;;4954612;28;20205;-63
2022/09/05 14:02:28;;;;;;;5.43;5.13;;;;;;;;;;4952284;28;20180;-63
2022/09/05 14:05:27;;;;;;;3.85;3.50;;;;;;;;;;4961538;28;20199;-63
2022/09/05 14:08:16;;;;;;;3.22;3.03;;;;;;;;;;4930364;28;20562;-63
2022/09/05 14:10:51;;;;;;;3.95;3.70;;;;;;;;;;4964770;28;20176;-62
2022/09/05 14:13:24;;;;;;;4.45;4.13;;;;;;;;;;4950422;28;20199;-63
2022/09/05 14:16:01;;;;;;;3.55;3.35;;;;;;;;;;4964984;28;20176;-64
2022/09/05 14:21:14;;;;;;;7.03;4.38;;;;;;;;;;4948527;28;20182;-62
2022/09/05 14:21:19;;;;;;;7.97;7.47;;;;;;;;;;4965411;28;20185;-64
2022/09/05 14:23:55;;;;;;;3.30;3.00;;;;;;;;;;4948601;28;20180;-64
2022/09/05 14:26:42;;;;;;;3.88;3.20;;;;;;;;;;4963496;28;20194;-63
2022/09/05 14:29:16;;;;;;;3.78;3.55;;;;;;;;;;4947097;28;20180;-63
2022/09/05 14:31:55;;;;;;;4.10;3.73;;;;;;;;;;4948376;28;20641;-62
2022/09/05 14:34:41;;;;;;;4.13;3.78;;;;;;;;;;4943167;28;20453;-62
2022/09/05 14:37:19;;;;;;;3.53;3.33;;;;;;;;;;4959685;28;20382;-65
2022/09/05 14:40:21;;;;;;;4.85;3.58;;;;;;;;;;4960512;28;20176;-63
2022/09/05 14:42:47;;;;;;;4.32;4.03;;;;;;;;;;4897084;29;20277;-63
2022/09/05 14:45:14;;;;;;;4.35;3.00;;;;;;;;;;4955457;28;20258;-63
2022/09/05 14:47:46;;;;;;;3.92;3.10;;;;;;;;;;4947110;28;20252;-63
2022/09/05 14:50:18;;;;;;;4.05;3.78;;;;;;;;;;4961959;28;20210;-60
2022/09/05 14:53:11;;;;;;;3.58;3.28;;;;;;;;;;4955193;28;20193;-63
2022/09/05 14:55:37;;;;;;;3.20;3.00;;;;;;;;;;4927244;28;20224;-62
2022/09/05 14:58:04;;;;;;;3.60;3.30;;;;;;;;;;4947601;28;20179;-62
2022/09/05 15:00:37;;;;;;;3.72;3.42;;;;;;;;;;4948331;28;20537;-61
2022/09/05 15:03:06;;;;;;;3.28;3.08;;;;;;;;;;4964218;28;20186;-61
2022/09/05 15:05:34;;;;;;;3.53;3.22;;;;;;;;;;4966224;28;20211;-60
2022/09/05 15:08:20;;;;;;;5.15;3.33;;;;;;;;;;4944859;28;20189;-61
2022/09/05 15:10:49;;;;;;;4.25;3.53;;;;;;;;;;4967888;28;20549;-62
2022/09/05 15:13:21;;;;;;;3.40;3.20;;;;;;;;;;4951918;28;20775;-59
2022/09/05 15:15:57;;;;;;;4.75;4.40;;;;;;;;;;4954782;28;22395;-61
2022/09/05 15:18:36;;;;;;;5.40;5.03;;;;;;;;;;4950591;28;20242;-61
2022/09/05 15:21:23;;;;;;;3.60;3.40;;;;;;;;;;4967378;28;20832;-60
2022/09/05 15:24:16;;;;;;;3.38;3.08;;;;;;;;;;4946633;28;20176;-60
2022/09/05 15:26:53;;;;;;;4.22;3.75;;;;;;;;;;4957340;28;20733;-60
2022/09/05 15:29:26;;;;;;;3.38;3.17;;;;;;;;;;4955051;28;20175;-61
2022/09/05 15:32:10;;;;;;;4.82;3.83;;;;;;;;;;4967722;28;20238;-61
2022/09/05 15:34:37;;;;;;;3.10;2.88;;;;;;;;;;4936058;28;20187;-61